Time;durP1;ratioP1;P1;durP2;ratioP2;P2;SDS_P1;SDS_P2;PMS_P1;PMS_P2;Temp;Humidity;BMP_temperature;BMP_pressure;BME280_temperature;BME280_humidity;BME280_pressure;Samples;Min_cycle;Max_cycle;Signal;HPM_P1;HPM_P2
2022/05/22 00:01:01;;;;;;;4.37;2.00;;;;;;;17.84;51.91;98152.22;8414858;28;20234;-87
2022/05/22 00:05:05;;;;;;;5.63;1.93;;;;;;;17.84;52.34;98147.88;8415304;28;20247;-83
2022/05/22 00:09:09;;;;;;;4.67;2.03;;;;;;;17.79;51.80;98142.91;8415568;28;20227;-84
2022/05/22 00:13:12;;;;;;;4.30;2.00;;;;;;;17.73;51.86;98140.75;8415392;28;20233;-85
2022/05/22 00:17:15;;;;;;;3.93;2.20;;;;;;;17.80;51.46;98133.31;8414694;28;20536;-86
2022/05/22 00:21:18;;;;;;;4.43;2.10;;;;;;;17.80;51.53;98141.16;8414242;28;20525;-87
2022/05/22 00:25:22;;;;;;;7.53;2.10;;;;;;;17.74;51.20;98139.81;8414163;28;20242;-87
2022/05/22 00:29:26;;;;;;;4.13;2.20;;;;;;;17.69;51.17;98143.69;8413605;28;20230;-87
2022/05/22 00:33:29;;;;;;;5.00;2.13;;;;;;;17.74;51.19;98144.19;8413998;28;20235;-88
2022/05/22 00:37:32;;;;;;;5.70;2.20;;;;;;;17.69;51.20;98146.31;8414043;28;20231;-87
2022/05/22 00:41:37;;;;;;;3.73;2.30;;;;;;;17.51;52.26;98153.66;8414118;28;20258;-86
2022/05/22 00:45:40;;;;;;;7.50;2.20;;;;;;;17.54;52.64;98140.38;8413451;28;20231;-87
2022/05/22 00:49:44;;;;;;;5.87;2.20;;;;;;;17.54;52.34;98137.75;8413724;28;20231;-87
2022/05/22 00:53:51;;;;;;;2.93;2.00;;;;;;;17.54;52.22;98138.59;8413612;28;20226;-87
2022/05/22 00:57:57;;;;;;;5.43;2.27;;;;;;;17.55;52.09;98135.03;8413900;28;20238;-87
2022/05/22 01:02:00;;;;;;;5.93;2.03;;;;;;;17.41;52.67;98140.38;8413147;28;20436;-87
2022/05/22 01:06:05;;;;;;;4.40;1.87;;;;;;;17.33;52.36;98135.69;8413028;28;20227;-87
2022/05/22 01:10:09;;;;;;;5.90;2.67;;;;;;;17.43;52.39;98140.28;8413726;28;20525;-87
2022/05/22 01:14:14;;;;;;;9.67;2.30;;;;;;;17.46;52.33;98126.97;8413466;28;20261;-87
2022/05/22 01:18:18;;;;;;;5.27;2.50;;;;;;;17.31;52.85;98128.88;8413169;28;20241;-87
2022/05/22 01:22:22;;;;;;;5.80;2.40;;;;;;;17.32;52.77;98133.16;8413435;28;20241;-87
2022/05/22 01:26:27;;;;;;;4.43;2.30;;;;;;;17.43;53.06;98129.81;8412949;28;20529;-87
2022/05/22 01:30:30;;;;;;;6.40;2.40;;;;;;;17.42;52.97;98128.13;8413786;28;20237;-87
2022/05/22 01:34:34;;;;;;;6.00;2.30;;;;;;;17.36;53.30;98125.00;8414073;28;20515;-87
2022/05/22 01:38:39;;;;;;;5.90;2.43;;;;;;;17.36;53.13;98132.00;8413832;28;20242;-86
2022/05/22 01:42:42;;;;;;;4.53;2.27;;;;;;;17.34;53.14;98132.13;8413830;28;20239;-87
2022/05/22 01:46:45;;;;;;;6.27;2.30;;;;;;;17.38;53.43;98137.97;8413597;28;20233;-87
2022/05/22 01:50:48;;;;;;;3.60;2.20;;;;;;;17.26;54.07;98128.34;8413624;28;20341;-87
2022/05/22 01:54:53;;;;;;;6.23;2.50;;;;;;;17.25;53.25;98121.44;8413669;28;20222;-87
2022/05/22 01:58:56;;;;;;;7.73;2.70;;;;;;;17.23;53.03;98129.41;8416720;28;20223;-87
2022/05/22 02:02:59;;;;;;;6.30;2.47;;;;;;;17.30;53.20;98121.97;8419439;28;20231;-87
2022/05/22 02:11:24;;;;;;;4.67;2.50;;;;;;;17.26;53.58;98121.34;8418935;28;20226;-86
2022/05/22 02:15:27;;;;;;;7.07;2.33;;;;;;;17.31;53.49;98119.25;8419225;28;20230;-87
2022/05/22 02:19:30;;;;;;;5.67;2.53;;;;;;;17.37;53.01;98131.06;8419141;28;20556;-86
2022/05/22 02:23:35;;;;;;;7.97;2.47;;;;;;;17.22;53.54;98121.66;8419070;28;20239;-87
2022/05/22 02:27:39;;;;;;;6.70;2.60;;;;;;;17.26;54.24;98120.50;8419052;28;20241;-85
2022/05/22 02:31:42;;;;;;;5.03;2.57;;;;;;;17.33;53.68;98113.91;8418669;28;20288;-87
2022/05/22 02:35:45;;;;;;;6.10;3.00;;;;;;;17.34;53.46;98112.94;8418605;28;20237;-87
2022/05/22 02:39:48;;;;;;;11.87;3.10;;;;;;;17.22;54.17;98109.41;8418667;28;20222;-88
2022/05/22 02:43:52;;;;;;;5.73;2.83;;;;;;;17.41;53.34;98111.59;8418774;28;20226;-87
2022/05/22 02:47:55;;;;;;;8.33;2.90;;;;;;;17.42;53.47;98109.78;8418350;28;20280;-87
2022/05/22 02:52:00;;;;;;;6.83;3.23;;;;;;;17.43;53.27;98103.63;8418153;28;20236;-87
2022/05/22 02:56:08;;;;;;;7.10;3.60;;;;;;;16.99;53.89;98103.97;8418175;28;20229;-87
2022/05/22 03:00:15;;;;;;;7.20;3.37;;;;;;;17.19;54.09;98115.69;8417962;28;20238;-87
2022/05/22 03:04:18;;;;;;;7.20;3.00;;;;;;;17.18;54.01;98105.34;8417898;28;20533;-87
2022/05/22 03:08:21;;;;;;;6.20;2.80;;;;;;;17.23;53.90;98102.38;8417349;28;20235;-87
2022/05/22 03:12:25;;;;;;;7.63;3.63;;;;;;;17.19;54.41;98099.16;8417031;28;20227;-86
2022/05/22 03:16:29;;;;;;;5.20;3.00;;;;;;;17.27;53.77;98099.47;8417858;28;20238;-87
2022/05/22 03:20:33;;;;;;;4.70;2.90;;;;;;;17.24;53.97;98101.47;8417621;28;20564;-87
2022/05/22 03:24:36;;;;;;;4.13;2.83;;;;;;;17.24;53.71;98085.75;8417443;28;20230;-87
2022/05/22 03:28:39;;;;;;;5.80;3.03;;;;;;;17.31;53.74;98084.38;8417630;28;20234;-86
2022/05/22 03:32:43;;;;;;;5.47;3.23;;;;;;;17.17;54.28;98075.72;8417460;28;20257;-87
2022/05/22 03:36:46;;;;;;;7.47;3.33;;;;;;;17.04;54.17;98077.50;8417635;28;20226;-87
2022/05/22 03:40:50;;;;;;;6.47;3.00;;;;;;;17.16;53.84;98062.75;8417326;28;20231;-87
2022/05/22 03:44:53;;;;;;;4.30;2.90;;;;;;;17.18;54.02;98061.69;8416771;28;20242;-87
2022/05/22 03:48:57;;;;;;;5.47;3.30;;;;;;;17.18;54.42;98063.47;8416830;28;20403;-87
2022/05/22 03:53:00;;;;;;;5.23;2.97;;;;;;;17.23;53.69;98048.28;8416630;28;20237;-87
2022/05/22 03:57:04;;;;;;;7.77;3.30;;;;;;;17.16;53.89;98058.34;8416792;28;20232;-87
2022/05/22 04:01:07;;;;;;;5.90;3.37;;;;;;;16.96;53.65;98048.41;8416427;28;20441;-87
2022/05/22 04:05:12;;;;;;;9.20;3.43;;;;;;;17.06;53.50;98040.75;8415456;28;20412;-86
2022/05/22 04:09:16;;;;;;;4.70;3.27;;;;;;;17.00;53.59;98042.88;8416069;28;20516;-87
2022/05/22 04:13:19;;;;;;;5.13;2.97;;;;;;;17.17;53.16;98052.16;8415647;28;20241;-87
2022/05/22 04:17:27;;;;;;;7.27;3.20;;;;;;;17.23;53.25;98045.66;8415078;28;20246;-87
2022/05/22 04:21:31;;;;;;;4.53;2.97;;;;;;;17.19;53.54;98047.66;8414561;28;20227;-87
2022/05/22 04:25:33;;;;;;;5.37;3.10;;;;;;;17.29;53.83;98039.19;8416123;28;20533;-88
2022/05/22 04:29:37;;;;;;;5.53;3.10;;;;;;;17.32;53.77;98042.38;8415257;28;20231;-88
2022/05/22 04:33:40;;;;;;;8.47;3.67;;;;;;;16.72;56.03;98048.31;8415351;28;20241;-88
2022/05/22 04:37:44;;;;;;;8.43;3.53;;;;;;;17.03;54.94;98049.66;8415184;28;20230;-88
2022/05/22 04:41:47;;;;;;;6.50;3.70;;;;;;;16.89;55.42;98049.81;8415032;28;20537;-89
2022/05/22 04:45:50;;;;;;;6.50;3.97;;;;;;;17.15;54.96;98045.34;8415019;28;20238;-88
2022/05/22 04:49:54;;;;;;;7.77;3.87;;;;;;;16.91;55.73;98038.28;8415146;28;20506;-88
2022/05/22 04:53:58;;;;;;;7.93;3.43;;;;;;;17.11;55.54;98049.13;8414799;28;20226;-88
2022/05/22 04:58:01;;;;;;;10.40;4.20;;;;;;;16.69;56.30;98062.41;8414669;28;20218;-85
2022/05/22 05:02:04;;;;;;;10.27;3.77;;;;;;;16.95;55.73;98052.81;8414522;28;20234;-87
2022/05/22 05:06:07;;;;;;;10.40;4.57;;;;;;;16.89;56.48;98050.63;8414714;28;20238;-88
2022/05/22 05:10:13;;;;;;;7.97;3.93;;;;;;;16.97;55.29;98071.03;8396904;28;20230;-85
2022/05/22 05:14:15;;;;;;;9.20;4.50;;;;;;;16.71;56.45;98055.28;8380966;28;20542;-87
2022/05/22 05:18:18;;;;;;;7.57;4.47;;;;;;;17.05;55.73;98065.25;8379210;28;20231;-87
2022/05/22 05:22:21;;;;;;;8.07;4.30;;;;;;;17.26;54.87;98063.75;8381002;28;20242;-86
2022/05/22 05:26:25;;;;;;;7.73;4.20;;;;;;;17.13;54.94;98058.53;8405634;28;20230;-87
2022/05/22 05:30:28;;;;;;;8.33;4.97;;;;;;;17.15;55.14;98051.44;8414055;28;20226;-87
2022/05/22 05:34:31;;;;;;;9.17;4.73;;;;;;;17.45;54.47;98044.16;8420338;28;20337;-87
2022/05/22 05:38:34;;;;;;;7.93;4.47;;;;;;;17.52;54.64;98042.78;8420258;28;20230;-84
2022/05/22 05:42:59;;;;;;;6.33;4.23;;;;;;;17.51;54.54;98036.69;8420477;28;20233;-87
2022/05/22 05:47:02;;;;;;;9.33;4.80;;;;;;;17.34;55.19;98044.91;8420365;28;20226;-85
2022/05/22 05:51:05;;;;;;;8.33;4.93;;;;;;;17.49;54.29;98056.06;8420283;28;20227;-85
2022/05/22 05:55:08;;;;;;;9.53;5.10;;;;;;;17.43;53.33;98051.28;8419857;28;20227;-85
2022/05/22 05:59:12;;;;;;;7.83;4.43;;;;;;;17.95;51.63;98047.53;8419710;28;20230;-85
2022/05/22 06:03:15;;;;;;;8.07;4.40;;;;;;;18.24;50.80;98045.41;8419384;28;20235;-85
2022/05/22 06:07:21;;;;;;;9.97;4.80;;;;;;;18.13;52.07;98035.72;8419549;28;20533;-85
2022/05/22 06:11:24;;;;;;;5.83;3.90;;;;;;;18.55;51.34;98022.94;8411065;28;20226;-84
2022/05/22 06:15:31;;;;;;;8.93;4.47;;;;;;;18.22;51.20;98033.34;8419182;28;20230;-84
2022/05/22 06:23:54;;;;;;;6.47;3.80;;;;;;;18.93;50.49;98040.19;8419185;28;20416;-85
2022/05/22 06:27:57;;;;;;;11.37;4.70;;;;;;;18.95;51.37;98043.53;8419241;28;20238;-86
2022/05/22 06:32:01;;;;;;;9.53;4.60;;;;;;;19.25;51.17;98034.22;8418449;28;20234;-84
2022/05/22 06:36:08;;;;;;;7.27;4.30;;;;;;;18.94;51.20;98028.75;8418671;28;20224;-87
2022/05/22 06:40:12;;;;;;;9.23;4.53;;;;;;;18.65;51.04;98022.25;8419144;28;20238;-84
2022/05/22 06:44:14;;;;;;;9.03;4.30;;;;;;;19.39;51.04;98020.00;8417787;28;20571;-87
2022/05/22 06:48:19;;;;;;;5.87;3.73;;;;;;;19.31;49.27;98017.16;8418554;28;20236;-86
2022/05/22 06:52:22;;;;;;;6.37;4.10;;;;;;;19.31;50.54;98023.22;8384663;28;20237;-76
2022/05/22 06:56:25;;;;;;;6.63;3.83;;;;;;;19.74;49.74;98024.22;8384601;28;20233;-82
2022/05/22 07:00:30;;;;;;;7.43;4.23;;;;;;;20.04;48.38;98014.81;8384868;28;20224;-82
2022/05/22 07:04:34;;;;;;;7.53;4.03;;;;;;;20.26;47.90;98025.22;8385047;28;20536;-86
2022/05/22 07:08:37;;;;;;;6.53;4.00;;;;;;;20.54;48.02;98019.44;8384181;28;20244;-82
2022/05/22 07:12:40;;;;;;;7.93;4.17;;;;;;;20.89;47.32;98012.03;8384516;28;20255;-82
2022/05/22 07:16:43;;;;;;;8.53;3.90;;;;;;;21.12;46.28;98011.03;8384157;28;20227;-82
2022/05/22 07:20:47;;;;;;;8.30;3.97;;;;;;;21.42;45.47;98000.44;8384275;28;20230;-82
2022/05/22 07:24:50;;;;;;;6.70;3.63;;;;;;;21.76;45.47;98001.88;8383812;28;20538;-85
2022/05/22 07:28:54;;;;;;;7.07;3.53;;;;;;;21.75;44.03;98002.84;8383944;28;20522;-84
2022/05/22 07:32:57;;;;;;;8.30;3.80;;;;;;;21.58;41.51;97992.00;8383693;28;20230;-83
2022/05/22 07:37:03;;;;;;;6.17;3.10;;;;;;;21.20;41.01;97992.75;8383475;28;20504;-84
2022/05/22 07:41:06;;;;;;;6.90;3.30;;;;;;;21.69;41.96;97995.50;8383640;28;20228;-85
2022/05/22 07:45:12;;;;;;;5.73;3.20;;;;;;;22.10;40.68;97990.91;8383315;28;20553;-85
2022/05/22 07:53:34;;;;;;;4.07;2.37;;;;;;;23.06;39.25;97986.41;8390355;28;20231;-87
2022/05/22 07:57:37;;;;;;;7.00;2.63;;;;;;;23.47;39.09;97981.56;8382870;28;20234;-85
2022/05/22 08:01:41;;;;;;;5.20;2.93;;;;;;;23.83;38.89;97976.34;8382090;28;20289;-85
2022/05/22 08:05:44;;;;;;;9.53;3.57;;;;;;;23.47;37.60;97983.38;8382646;28;20242;-82
2022/05/22 08:09:50;;;;;;;5.63;2.83;;;;;;;24.10;36.86;97974.56;8382339;28;20227;-84
2022/05/22 08:13:52;;;;;;;4.00;2.10;;;;;;;24.29;35.78;97974.38;8383854;28;20223;-83
2022/05/22 08:17:55;;;;;;;4.00;2.00;;;;;;;24.61;33.34;97965.00;8382215;28;20239;-84
2022/05/22 08:21:58;;;;;;;6.07;2.00;;;;;;;24.91;32.23;97953.09;8381544;28;20224;-84
2022/05/22 08:26:02;;;;;;;7.00;2.47;;;;;;;24.89;34.27;97951.59;8381955;28;20237;-86
2022/05/22 08:30:07;;;;;;;6.23;2.07;;;;;;;25.28;33.92;97956.38;8381890;28;20230;-83
2022/05/22 08:34:10;;;;;;;5.67;2.10;;;;;;;24.34;30.92;97940.34;8381545;28;20550;-83
2022/05/22 08:38:13;;;;;;;5.27;1.43;;;;;;;23.66;34.45;97938.31;8381675;28;20231;-84
2022/05/22 08:42:20;;;;;;;5.57;1.83;;;;;;;24.67;31.59;97942.38;8381635;28;20250;-82
2022/05/22 08:46:31;;;;;;;5.50;1.97;;;;;;;24.81;31.16;97936.50;8380873;28;20248;-82
2022/05/22 08:50:37;;;;;;;4.07;1.60;;;;;;;25.29;32.27;97931.56;8355992;28;20520;-84
2022/05/22 08:54:42;;;;;;;3.67;1.70;;;;;;;25.68;30.89;97936.22;8348169;28;20242;-83
2022/05/22 08:58:58;;;;;;;4.87;1.60;;;;;;;25.86;30.21;97928.13;8348169;28;20462;-84
2022/05/22 09:03:04;;;;;;;5.07;1.90;;;;;;;26.06;31.60;97921.50;8362310;28;20306;-84
2022/05/22 09:07:19;;;;;;;5.00;1.67;;;;;;;26.45;30.35;97922.63;8378380;28;20238;-85
2022/05/22 09:11:31;;;;;;;8.10;2.27;;;;;;;26.72;30.60;97930.19;8380618;28;20235;-84
2022/05/22 09:15:42;;;;;;;5.43;1.93;;;;;;;26.55;30.33;97922.41;8380683;28;20404;-83
2022/05/22 09:19:57;;;;;;;5.27;2.17;;;;;;;26.99;28.68;97914.78;8380906;28;20230;-84
2022/05/22 09:24:01;;;;;;;5.33;1.80;;;;;;;27.14;30.35;97914.06;8380751;28;20245;-84
2022/05/22 09:28:11;;;;;;;4.03;1.77;;;;;;;26.32;30.27;97915.16;8380313;28;20233;-84
2022/05/22 09:32:24;;;;;;;3.93;1.60;;;;;;;26.33;30.08;97901.72;8380644;28;20236;-83
2022/05/22 09:36:35;;;;;;;4.97;1.70;;;;;;;25.49;31.68;97900.25;8413068;28;20238;-85
2022/05/22 09:41:04;;;;;;;2.90;1.23;;;;;;;26.80;30.05;97893.97;8413341;28;20230;-84
2022/05/22 09:45:14;;;;;;;3.13;1.43;;;;;;;26.53;29.02;97894.19;8413668;28;20278;-83
2022/05/22 09:49:38;;;;;;;7.77;2.00;;;;;;;27.17;28.32;97882.66;8413074;28;20232;-81
2022/05/22 09:53:48;;;;;;;4.97;1.77;;;;;;;26.15;29.92;97885.19;8412827;28;20548;-84
2022/05/22 09:58:21;;;;;;;4.83;1.67;;;;;;;25.02;29.06;97883.09;8413219;28;20237;-83
2022/05/22 10:02:26;;;;;;;5.40;1.70;;;;;;;26.03;30.28;97873.28;8412451;28;20230;-83
2022/05/22 10:06:36;;;;;;;5.23;2.07;;;;;;;26.77;28.98;97879.22;8378345;28;20298;-83
2022/05/22 10:10:43;;;;;;;4.63;1.50;;;;;;;27.27;27.31;97877.94;8360879;28;20393;-83
2022/05/22 10:14:53;;;;;;;4.97;1.93;;;;;;;27.44;28.26;97865.38;8362359;28;20224;-83
2022/05/22 10:19:05;;;;;;;5.70;3.40;;;;;;;27.82;28.83;97873.38;8364060;28;20524;-83
2022/05/22 10:23:31;;;;;;;4.83;1.80;;;;;;;28.06;26.89;97860.84;8396400;28;20231;-84
2022/05/22 10:27:46;;;;;;;4.43;1.60;;;;;;;27.69;28.58;97863.34;8385184;28;20233;-87
2022/05/22 10:31:55;;;;;;;4.33;1.80;;;;;;;25.25;28.57;97864.78;8385416;28;20228;-84
2022/05/22 10:36:05;;;;;;;5.87;1.70;;;;;;;25.02;30.17;97855.75;8385447;28;20237;-84
2022/05/22 10:40:15;;;;;;;12.23;2.20;;;;;;;24.78;30.81;97858.19;8384720;28;20418;-82
2022/05/22 10:44:20;;;;;;;10.17;2.63;;;;;;;24.81;32.25;97853.56;8385092;28;20239;-81
2022/05/22 10:48:24;;;;;;;9.30;4.97;;;;;;;26.01;31.43;97848.72;8384411;28;20238;-81
2022/05/22 10:52:31;;;;;;;10.50;5.70;;;;;;;26.76;29.61;97840.34;8384937;28;20233;-82
2022/05/22 10:56:36;;;;;;;17.17;9.87;;;;;;;26.75;29.68;97848.50;8390549;28;20224;-83
2022/05/22 11:00:39;;;;;;;4.63;2.50;;;;;;;25.00;29.55;97842.72;8417245;28;20233;-85
2022/05/22 11:04:44;;;;;;;3.07;1.60;;;;;;;24.30;30.84;97840.28;8406041;28;20275;-84
2022/05/22 11:08:50;;;;;;;7.13;4.73;;;;;;;24.79;30.50;97837.84;8360800;28;20413;-84
2022/05/22 11:13:07;;;;;;;5.00;1.90;;;;;;;24.32;30.37;97833.00;8351348;28;20242;-84
2022/05/22 11:17:11;;;;;;;4.43;1.80;;;;;;;24.91;31.29;97833.06;8356499;28;20237;-84
2022/05/22 11:21:26;;;;;;;7.17;1.80;;;;;;;26.40;28.98;97826.72;8350673;28;20237;-84
2022/05/22 11:25:34;;;;;;;3.63;1.83;;;;;;;26.63;30.60;97826.81;8388287;28;20222;-84
2022/05/22 11:29:58;;;;;;;4.50;1.80;;;;;;;27.26;26.81;97816.97;8398632;28;20296;-84
2022/05/22 11:34:15;;;;;;;4.17;1.60;;;;;;;27.40;26.22;97807.44;8394178;28;20249;-80
2022/05/22 11:38:43;;;;;;;4.73;1.80;;;;;;;27.96;27.77;97805.25;8394827;28;20226;-83
2022/05/22 11:42:46;;;;;;;2.93;1.40;;;;;;;27.42;29.60;97802.75;8398798;28;20326;-85
2022/05/22 11:47:03;;;;;;;3.53;1.47;;;;;;;26.52;29.55;97798.78;8398605;28;20296;-83
2022/05/22 11:51:18;;;;;;;3.57;1.50;;;;;;;26.64;30.89;97799.28;8398519;28;20233;-84
2022/05/22 11:55:26;;;;;;;4.60;1.60;;;;;;;25.62;29.56;97791.06;8398706;28;20546;-83
2022/05/22 11:59:49;;;;;;;3.53;1.40;;;;;;;25.57;31.11;97783.63;8396882;28;20222;-84
2022/05/22 12:04:24;;;;;;;2.97;1.67;;;;;;;26.25;28.46;97786.78;8398615;28;20230;-83
2022/05/22 12:08:43;;;;;;;3.33;1.67;;;;;;;26.80;29.44;97793.03;8400875;28;20224;-83
2022/05/22 12:12:52;;;;;;;6.03;1.80;;;;;;;26.81;27.09;97784.06;8390028;28;20227;-84
2022/05/22 12:17:02;;;;;;;7.87;2.10;;;;;;;27.09;29.03;97771.06;8382415;28;20218;-84
2022/05/22 12:21:13;;;;;;;2.17;1.30;;;;;;;27.75;27.95;97760.69;8397645;28;20224;-84
2022/05/22 12:25:18;;;;;;;3.50;1.47;;;;;;;27.95;28.53;97747.72;8398839;28;20420;-84
2022/05/22 12:29:27;;;;;;;6.20;1.60;;;;;;;28.39;27.56;97746.84;8397430;28;20225;-83
2022/05/22 12:33:33;;;;;;;4.47;1.83;;;;;;;27.79;28.54;97740.69;8395596;28;20335;-83
2022/05/22 12:37:41;;;;;;;2.83;1.30;;;;;;;28.47;27.84;97745.91;8394888;28;20243;-82
2022/05/22 12:41:59;;;;;;;6.93;1.70;;;;;;;28.71;26.98;97731.44;8392608;28;20254;-84
2022/05/22 12:46:04;;;;;;;4.90;1.43;;;;;;;28.76;27.81;97731.69;8381470;28;20395;-86
2022/05/22 12:50:08;;;;;;;2.70;1.20;;;;;;;28.75;25.99;97731.88;8381533;28;20232;-84
2022/05/22 12:54:23;;;;;;;4.63;1.50;;;;;;;29.16;26.32;97731.28;8381295;28;20412;-85
2022/05/22 12:58:32;;;;;;;3.60;1.50;;;;;;;29.13;25.98;97723.66;8384899;28;20230;-84
2022/05/22 13:02:41;;;;;;;4.03;1.50;;;;;;;29.07;24.96;97711.88;8386996;28;20232;-84
2022/05/22 13:06:49;;;;;;;6.30;1.40;;;;;;;29.24;25.58;97707.97;8380695;28;20262;-84
2022/05/22 13:10:55;;;;;;;5.70;1.60;;;;;;;29.17;26.35;97703.59;8391748;28;20412;-83
2022/05/22 13:15:01;;;;;;;10.60;1.63;;;;;;;28.61;25.56;97697.09;8391721;28;20242;-84
2022/05/22 13:19:04;;;;;;;5.10;1.53;;;;;;;28.85;27.06;97693.25;8390092;28;20223;-85
2022/05/22 13:23:09;;;;;;;3.73;1.40;;;;;;;29.20;26.16;97682.69;8398359;28;20548;-83
2022/05/22 13:27:23;;;;;;;3.10;1.20;;;;;;;29.18;26.19;97679.38;8396842;28;20245;-83
2022/05/22 13:31:34;;;;;;;2.90;1.33;;;;;;;29.11;26.46;97677.66;8399629;28;20224;-83
2022/05/22 13:35:40;;;;;;;4.80;1.57;;;;;;;29.20;26.66;97679.22;8391807;28;20548;-83
2022/05/22 13:39:52;;;;;;;4.80;1.40;;;;;;;29.04;24.78;97672.28;8388296;28;20231;-85
2022/05/22 13:44:13;;;;;;;3.70;1.60;;;;;;;28.91;26.13;97667.66;8380327;28;20240;-82
2022/05/22 13:48:35;;;;;;;4.23;1.37;;;;;;;28.81;24.97;97665.34;8380211;28;20554;-82
2022/05/22 13:52:47;;;;;;;2.93;1.30;;;;;;;28.77;25.39;97668.56;8374510;28;20236;-82
2022/05/22 13:56:56;;;;;;;4.53;1.20;;;;;;;28.75;26.70;97660.78;8386265;28;20541;-82
2022/05/22 14:01:09;;;;;;;3.90;1.47;;;;;;;28.19;24.70;97653.41;8386343;28;20231;-82
2022/05/22 14:05:14;;;;;;;4.93;1.30;;;;;;;28.30;26.52;97648.63;8417894;28;20293;-78
2022/05/22 14:09:20;;;;;;;4.83;1.30;;;;;;;28.50;27.04;97635.50;8419132;28;20242;-80
2022/05/22 14:13:25;;;;;;;3.97;1.40;;;;;;;28.37;25.55;97625.53;8407306;28;20226;-79
2022/05/22 14:17:33;;;;;;;5.93;1.50;;;;;;;28.27;26.79;97621.38;8377717;28;20542;-79
2022/05/22 14:21:37;;;;;;;4.57;1.20;;;;;;;27.76;27.22;97626.69;8385561;28;20231;-79
2022/05/22 14:25:41;;;;;;;2.63;1.10;;;;;;;28.06;26.42;97611.53;8385057;28;20260;-79
2022/05/22 14:29:44;;;;;;;3.87;1.10;;;;;;;27.97;25.66;97614.47;8385255;28;20234;-77
2022/05/22 14:33:58;;;;;;;4.57;1.30;;;;;;;28.02;26.95;97609.41;8377005;28;20230;-79
2022/05/22 14:38:10;;;;;;;3.83;1.60;;;;;;;27.82;26.38;97607.31;8385328;28;20231;-78
2022/05/22 14:42:18;;;;;;;3.77;1.40;;;;;;;27.87;27.31;97604.09;8385149;28;20232;-78
2022/05/22 14:46:23;;;;;;;3.27;1.30;;;;;;;27.97;27.79;97596.69;8377001;28;20239;-81
2022/05/22 14:50:28;;;;;;;3.47;1.53;;;;;;;27.47;25.85;97591.16;8384481;28;20230;-83
2022/05/22 14:54:34;;;;;;;3.00;1.40;;;;;;;27.25;27.62;97584.09;8405737;28;20231;-82
2022/05/22 14:58:48;;;;;;;5.57;1.70;;;;;;;27.57;29.53;97576.72;8411216;28;20238;-82
2022/05/22 15:02:53;;;;;;;2.57;1.27;;;;;;;27.55;28.67;97578.75;8402717;28;20244;-83
2022/05/22 15:07:00;;;;;;;3.67;1.63;;;;;;;27.45;28.58;97593.13;8399316;28;20235;-81
2022/05/22 15:11:13;;;;;;;2.63;1.43;;;;;;;26.90;26.96;97578.44;8400139;28;20420;-84
2022/05/22 15:15:25;;;;;;;3.23;1.20;;;;;;;26.84;29.14;97587.13;8397182;28;20230;-83
2022/05/22 15:28:27;;;;;;;3.10;1.30;;;;;;;26.69;30.09;97597.72;8383636;28;20262;-83
2022/05/22 15:32:30;;;;;;;5.47;2.00;;;;;;;26.63;27.99;97595.78;8389649;28;20217;-84
2022/05/22 15:36:41;;;;;;;4.23;1.50;;;;;;;26.50;28.46;97596.34;8399241;28;20234;-85
2022/05/22 15:40:50;;;;;;;4.70;1.50;;;;;;;26.10;28.76;97601.78;8399371;28;20230;-85
2022/05/22 15:45:04;;;;;;;3.10;1.30;;;;;;;26.55;29.50;97598.47;8399145;28;20228;-84
2022/05/22 15:53:33;;;;;;;4.40;1.40;;;;;;;26.39;29.50;97594.09;8397053;28;20232;-84
2022/05/22 15:57:37;;;;;;;2.90;1.20;;;;;;;26.19;29.33;97593.75;8398493;28;20406;-86
2022/05/22 16:01:41;;;;;;;2.93;1.47;;;;;;;25.90;29.40;97585.44;8395889;28;20224;-82
2022/05/22 16:05:44;;;;;;;3.13;1.20;;;;;;;25.75;30.14;97589.84;8400533;28;20410;-82
2022/05/22 16:09:47;;;;;;;3.77;1.40;;;;;;;25.82;30.57;97582.84;8402676;28;20227;-85
2022/05/22 16:13:51;;;;;;;5.43;1.50;;;;;;;25.80;31.28;97582.19;8409873;28;20222;-83
2022/05/22 16:17:57;;;;;;;3.73;1.20;;;;;;;25.59;31.16;97587.25;8414030;28;20277;-84
2022/05/22 16:22:00;;;;;;;2.37;1.37;;;;;;;25.52;31.61;97587.13;8414941;28;20422;-84
2022/05/22 16:26:06;;;;;;;2.23;1.00;;;;;;;25.47;31.78;97587.63;8414554;28;20234;-84
2022/05/22 16:30:12;;;;;;;5.03;1.10;;;;;;;25.34;31.28;97584.69;8412542;28;20254;-82
2022/05/22 16:34:19;;;;;;;72.53;5.27;;;;;;;25.27;31.82;97581.09;8379593;28;20236;-83
2022/05/22 16:38:22;;;;;;;5.93;1.57;;;;;;;25.27;32.15;97581.09;8398091;28;20244;-82
2022/05/22 16:42:27;;;;;;;4.97;1.63;;;;;;;25.24;32.47;97587.53;8382233;28;20567;-83
2022/05/22 16:46:31;;;;;;;4.30;1.30;;;;;;;25.12;32.76;97592.34;8381657;28;20234;-85
2022/05/22 16:54:54;;;;;;;5.53;1.63;;;;;;;25.07;32.18;97585.91;8381110;28;20233;-82
2022/05/22 16:58:57;;;;;;;1.87;1.10;;;;;;;25.00;31.74;97575.19;8380862;28;20547;-82
2022/05/22 17:03:02;;;;;;;1.60;1.00;;;;;;;24.92;31.62;97583.97;8381134;28;20237;-84
2022/05/22 17:07:09;;;;;;;5.40;1.50;;;;;;;24.85;32.20;97571.56;8380579;28;20325;-83
2022/05/22 17:11:16;;;;;;;2.37;1.27;;;;;;;24.76;32.47;97568.09;8380859;28;20533;-83
2022/05/22 17:15:19;;;;;;;2.70;1.10;;;;;;;24.61;32.40;97570.56;8380553;28;20240;-83
2022/05/22 17:19:24;;;;;;;7.50;1.70;;;;;;;24.66;33.47;97575.38;8380279;28;20311;-78
2022/05/22 17:23:29;;;;;;;32.73;2.87;;;;;;;24.60;34.16;97566.28;8380507;28;20246;-84
2022/05/22 17:27:39;;;;;;;11.87;2.10;;;;;;;24.59;34.29;97569.91;8381561;28;20240;-84
2022/05/22 17:31:42;;;;;;;8.57;1.93;;;;;;;24.50;34.53;97571.72;8387044;28;20247;-83
2022/05/22 17:35:47;;;;;;;3.70;1.70;;;;;;;24.47;35.25;97565.94;8387103;28;20292;-84
2022/05/22 17:39:50;;;;;;;2.47;1.33;;;;;;;24.42;34.62;97550.53;8387129;28;20223;-85
2022/05/22 17:43:53;;;;;;;2.97;1.33;;;;;;;24.30;34.46;97551.88;8386752;28;20227;-84
2022/05/22 17:47:57;;;;;;;3.87;1.50;;;;;;;24.13;33.92;97543.91;8386742;28;20227;-84
2022/05/22 17:52:01;;;;;;;2.60;1.40;;;;;;;24.12;35.17;97542.28;8386618;28;20224;-83
2022/05/22 17:56:05;;;;;;;50.37;3.37;;;;;;;24.12;35.78;97542.28;8386438;28;20530;-81
2022/05/22 18:00:09;;;;;;;12.33;2.07;;;;;;;24.06;37.20;97539.44;8386526;28;20223;-84
2022/05/22 18:04:11;;;;;;;7.00;2.07;;;;;;;23.90;38.51;97534.97;8386099;28;20231;-83
2022/05/22 18:08:19;;;;;;;4.00;1.50;;;;;;;23.84;37.47;97531.16;8385957;28;20243;-84
2022/05/22 18:16:42;;;;;;;4.30;1.97;;;;;;;23.70;38.66;97532.56;8385392;28;20238;-81
2022/05/22 18:20:45;;;;;;;5.70;1.87;;;;;;;23.58;39.42;97526.75;8385831;28;20247;-84
2022/05/22 18:29:10;;;;;;;5.93;1.70;;;;;;;23.46;38.69;97516.66;8385652;28;20401;-82
2022/05/22 18:33:13;;;;;;;4.60;1.90;;;;;;;23.31;39.33;97511.97;8401505;28;20223;-82
2022/05/22 18:37:16;;;;;;;3.67;1.63;;;;;;;23.22;39.47;97505.81;8387404;28;20232;-78
2022/05/22 18:41:27;;;;;;;3.57;1.87;;;;;;;23.15;38.95;97504.84;8391466;28;20250;-83
2022/05/22 18:45:32;;;;;;;4.70;1.90;;;;;;;22.98;39.80;97506.53;8385094;28;20259;-83
2022/05/22 18:49:35;;;;;;;4.93;1.73;;;;;;;22.94;40.21;97493.78;8386629;28;20346;-83
2022/05/22 18:53:38;;;;;;;5.53;1.57;;;;;;;22.91;40.27;97491.47;8398364;28;20522;-85
2022/05/22 18:57:44;;;;;;;3.13;1.70;;;;;;;22.92;40.27;97488.66;8409094;28;20227;-83
2022/05/22 19:01:48;;;;;;;5.20;1.90;;;;;;;22.70;40.79;97479.50;8417659;28;20227;-82
2022/05/22 19:05:54;;;;;;;5.40;1.90;;;;;;;22.70;39.67;97476.84;8441265;28;20230;-81
2022/05/22 19:09:57;;;;;;;4.73;1.67;;;;;;;22.59;40.24;97477.13;8450906;28;20564;-81
2022/05/22 19:14:04;;;;;;;4.60;1.77;;;;;;;22.59;40.75;97470.00;8450908;28;20229;-79
2022/05/22 19:18:07;;;;;;;4.63;2.07;;;;;;;22.50;41.00;97476.22;8450915;28;20570;-79
2022/05/22 19:22:11;;;;;;;6.77;2.10;;;;;;;22.43;41.43;97478.66;8450514;28;20233;-80
2022/05/22 19:26:14;;;;;;;5.13;2.10;;;;;;;22.34;41.18;97471.69;8450617;28;20418;-78
2022/05/22 19:30:20;;;;;;;4.93;1.67;;;;;;;22.26;41.07;97469.00;8427395;28;20240;-81
2022/05/22 19:34:28;;;;;;;6.30;1.90;;;;;;;22.16;40.64;97463.78;8409312;28;20254;-82
2022/05/22 19:38:31;;;;;;;5.73;2.07;;;;;;;22.12;40.86;97469.50;8416332;28;20230;-80
2022/05/22 19:46:59;;;;;;;6.90;2.00;;;;;;;22.01;40.38;97449.50;8383216;28;20568;-81
2022/05/22 19:51:02;;;;;;;3.60;1.60;;;;;;;21.95;40.43;97447.44;8382711;28;20234;-81
2022/05/22 19:59:27;;;;;;;4.73;1.80;;;;;;;21.88;40.99;97444.59;8388436;28;20230;-79
2022/05/22 20:03:31;;;;;;;2.97;1.50;;;;;;;21.74;40.86;97451.25;8415763;28;20231;-78
2022/05/22 20:07:36;;;;;;;6.30;1.90;;;;;;;21.78;41.07;97451.75;8415576;28;20245;-80